Time;durP1;ratioP1;P1;durP2;ratioP2;P2;SDS_P1;SDS_P2;PMS_P1;PMS_P2;Temp;Humidity;BMP_temperature;BMP_pressure;BME280_temperature;BME280_humidity;BME280_pressure;Samples;Min_cycle;Max_cycle;Signal;HPM_P1;HPM_P2
2022/01/24 00:00:17;;;;;;;9.60;5.53;;;;;;;;;;5072025;28;20040;-63
2022/01/24 00:02:44;;;;;;;6.78;5.18;;;;;;;;;;5104459;28;20174;-63
2022/01/24 00:05:11;;;;;;;9.75;5.47;;;;;;;;;;5071200;28;20036;-63
2022/01/24 00:07:37;;;;;;;7.90;5.72;;;;;;;;;;5071881;28;20048;-63
2022/01/24 00:10:07;;;;;;;8.50;6.32;;;;;;;;;;5072030;28;20032;-63
2022/01/24 00:17:47;;;;;;;10.07;6.07;;;;;;;;;;5071584;28;20055;-63
2022/01/24 00:28:10;;;;;;;12.95;6.93;;;;;;;;;;5071020;28;20044;-63
2022/01/24 00:30:37;;;;;;;9.05;6.68;;;;;;;;;;5070971;28;20044;-63
2022/01/24 00:33:03;;;;;;;10.10;7.00;;;;;;;;;;5071776;28;20072;-63
2022/01/24 00:35:29;;;;;;;10.63;6.22;;;;;;;;;;5070960;28;20048;-63
2022/01/24 00:37:59;;;;;;;11.88;7.28;;;;;;;;;;5071633;28;20048;-63
2022/01/24 00:40:26;;;;;;;9.25;6.47;;;;;;;;;;5071487;28;20048;-63
2022/01/24 00:42:58;;;;;;;10.98;6.65;;;;;;;;;;5069841;28;20048;-63
2022/01/24 00:55:38;;;;;;;10.60;7.20;;;;;;;;;;5071246;28;20060;-63
2022/01/24 00:58:04;;;;;;;11.23;6.88;;;;;;;;;;5071195;28;20080;-63
2022/01/24 01:00:30;;;;;;;10.40;6.38;;;;;;;;;;5071448;28;20094;-63
2022/01/24 01:02:56;;;;;;;12.57;7.18;;;;;;;;;;5070303;28;20028;-63
2022/01/24 01:05:48;;;;;;;11.63;7.20;;;;;;;;;;5070802;28;20047;-63
2022/01/24 01:18:54;;;;;;;11.55;7.47;;;;;;;;;;5070571;28;20056;-63
2022/01/24 01:21:20;;;;;;;11.98;7.95;;;;;;;;;;5071240;28;20061;-63
2022/01/24 01:23:54;;;;;;;14.48;8.38;;;;;;;;;;5071156;28;20051;-63
2022/01/24 01:26:36;;;;;;;11.65;8.18;;;;;;;;;;5070040;28;20091;-63
2022/01/24 01:29:08;;;;;;;14.48;9.05;;;;;;;;;;5071161;28;20372;-63
2022/01/24 01:39:41;;;;;;;13.55;8.80;;;;;;;;;;5103527;28;20045;-63
2022/01/24 01:52:58;;;;;;;13.82;9.20;;;;;;;;;;5107394;28;20456;-63
2022/01/24 01:55:36;;;;;;;15.50;8.68;;;;;;;;;;5073873;28;20049;-63
2022/01/24 01:58:05;;;;;;;15.23;9.40;;;;;;;;;;5074370;28;20048;-63
2022/01/24 02:00:31;;;;;;;16.73;9.77;;;;;;;;;;5074396;28;20376;-63
2022/01/24 02:02:57;;;;;;;16.95;9.95;;;;;;;;;;5073828;28;20041;-63
2022/01/24 02:05:23;;;;;;;15.45;9.93;;;;;;;;;;5074375;28;20096;-63
2022/01/24 02:07:51;;;;;;;21.25;10.38;;;;;;;;;;5074377;28;20153;-63
2022/01/24 02:10:18;;;;;;;19.50;11.45;;;;;;;;;;5073653;28;20045;-63
2022/01/24 02:12:45;;;;;;;19.13;10.98;;;;;;;;;;5074243;28;20040;-63
2022/01/24 02:15:15;;;;;;;22.85;11.30;;;;;;;;;;5073979;28;20550;-63
2022/01/24 02:17:56;;;;;;;19.45;11.73;;;;;;;;;;5073378;28;20087;-63
2022/01/24 02:25:42;;;;;;;18.13;11.38;;;;;;;;;;5067813;28;20059;-63
2022/01/24 02:28:11;;;;;;;19.17;12.00;;;;;;;;;;5053505;28;20041;-63
2022/01/24 02:30:53;;;;;;;19.52;12.05;;;;;;;;;;5053666;28;20045;-63
2022/01/24 02:33:19;;;;;;;19.75;12.13;;;;;;;;;;5053139;28;20099;-63
2022/01/24 02:35:46;;;;;;;19.70;12.35;;;;;;;;;;5053781;28;20472;-63
2022/01/24 02:49:12;;;;;;;21.63;12.55;;;;;;;;;;5053587;28;20098;-63
2022/01/24 02:54:05;;;;;;;19.92;12.65;;;;;;;;;;5052367;28;20049;-63
2022/01/24 02:56:31;;;;;;;22.67;13.27;;;;;;;;;;5053358;28;20056;-63
2022/01/24 02:58:57;;;;;;;19.48;12.55;;;;;;;;;;5051819;28;20052;-63
2022/01/24 03:01:23;;;;;;;22.77;14.05;;;;;;;;;;5053196;28;20150;-63
2022/01/24 03:03:49;;;;;;;20.88;12.98;;;;;;;;;;5052616;28;20039;-63
2022/01/24 03:06:16;;;;;;;19.20;12.13;;;;;;;;;;5053156;28;20037;-63
2022/01/24 03:08:42;;;;;;;22.85;13.27;;;;;;;;;;5053164;28;20044;-63
2022/01/24 03:11:08;;;;;;;24.38;14.55;;;;;;;;;;5051207;28;20098;-63
2022/01/24 03:13:34;;;;;;;21.20;13.45;;;;;;;;;;5052983;28;20093;-63
2022/01/24 03:16:02;;;;;;;20.42;13.23;;;;;;;;;;5052932;28;20037;-63
2022/01/24 03:18:28;;;;;;;20.52;13.07;;;;;;;;;;5052212;28;20052;-63
2022/01/24 03:20:54;;;;;;;21.17;13.68;;;;;;;;;;5052926;28;20183;-63
2022/01/24 03:23:22;;;;;;;21.50;13.40;;;;;;;;;;5052468;28;20052;-63
2022/01/24 03:25:48;;;;;;;22.05;13.70;;;;;;;;;;5057626;28;20507;-63
2022/01/24 03:28:14;;;;;;;24.75;14.63;;;;;;;;;;5072497;28;20704;-63
2022/01/24 03:30:40;;;;;;;21.33;12.90;;;;;;;;;;5072379;28;20040;-63
2022/01/24 03:33:07;;;;;;;22.58;13.90;;;;;;;;;;5072084;28;20078;-63
2022/01/24 03:35:34;;;;;;;21.02;13.23;;;;;;;;;;5072549;28;20131;-63
2022/01/24 03:38:00;;;;;;;22.50;13.60;;;;;;;;;;5072486;28;20043;-63
2022/01/24 03:40:26;;;;;;;21.38;13.35;;;;;;;;;;5104382;28;20135;-63
2022/01/24 03:42:52;;;;;;;22.73;14.13;;;;;;;;;;5072458;28;20478;-63
2022/01/24 03:45:25;;;;;;;19.92;12.77;;;;;;;;;;5071153;28;20072;-63
2022/01/24 03:48:26;;;;;;;20.88;12.13;;;;;;;;;;5071515;28;20040;-63
2022/01/24 03:50:38;;;;;;;21.70;12.85;;;;;;;;;;5071671;28;20049;-63
2022/01/24 03:53:04;;;;;;;21.38;12.75;;;;;;;;;;5072292;28;20076;-63
2022/01/24 03:55:31;;;;;;;20.67;12.55;;;;;;;;;;5071317;28;20052;-63
2022/01/24 03:57:57;;;;;;;19.95;12.75;;;;;;;;;;5071983;28;20041;-63
2022/01/24 04:00:23;;;;;;;20.17;12.52;;;;;;;;;;5070822;28;20044;-63
2022/01/24 04:02:50;;;;;;;19.83;13.02;;;;;;;;;;5071121;28;20127;-63
2022/01/24 04:05:16;;;;;;;19.10;12.45;;;;;;;;;;5070947;28;20087;-63
2022/01/24 04:07:42;;;;;;;20.70;12.18;;;;;;;;;;5072073;28;20040;-63
2022/01/24 04:10:08;;;;;;;18.35;11.95;;;;;;;;;;5071469;28;20040;-63
2022/01/24 04:12:40;;;;;;;19.40;12.60;;;;;;;;;;5072151;28;20040;-63
2022/01/24 04:15:23;;;;;;;19.03;12.47;;;;;;;;;;5071673;28;20106;-63
2022/01/24 04:17:58;;;;;;;20.45;11.60;;;;;;;;;;5071361;28;20514;-63
2022/01/24 04:23:17;;;;;;;18.75;11.13;;;;;;;;;;5071279;28;20044;-63
2022/01/24 04:25:43;;;;;;;21.35;12.32;;;;;;;;;;5064919;28;20127;-63
2022/01/24 04:28:10;;;;;;;15.98;10.20;;;;;;;;;;5051606;28;20128;-63
2022/01/24 04:30:36;;;;;;;17.05;10.93;;;;;;;;;;5049626;28;20056;-63
2022/01/24 04:33:02;;;;;;;17.83;10.63;;;;;;;;;;5051747;28;20466;-63
2022/01/24 04:35:28;;;;;;;14.88;9.82;;;;;;;;;;5051402;28;20123;-63
2022/01/24 04:37:54;;;;;;;16.77;10.52;;;;;;;;;;5051059;28;20550;-63
2022/01/24 04:40:20;;;;;;;17.02;10.57;;;;;;;;;;5051704;28;20040;-63
2022/01/24 04:42:54;;;;;;;18.30;11.20;;;;;;;;;;5051594;28;20057;-63
2022/01/24 04:50:56;;;;;;;16.92;10.40;;;;;;;;;;5051610;28;20036;-63
2022/01/24 04:56:15;;;;;;;15.88;10.32;;;;;;;;;;5057801;28;20368;-63
2022/01/24 04:58:41;;;;;;;15.55;9.40;;;;;;;;;;5050052;28;20047;-63
2022/01/24 05:01:07;;;;;;;16.67;10.10;;;;;;;;;;5050729;28;20112;-63
2022/01/24 05:03:33;;;;;;;17.63;10.30;;;;;;;;;;5051207;28;20049;-63
2022/01/24 05:06:00;;;;;;;15.80;9.30;;;;;;;;;;5050078;28;20543;-63
2022/01/24 05:08:26;;;;;;;15.63;9.63;;;;;;;;;;5049078;28;20077;-63
2022/01/24 05:11:18;;;;;;;15.30;9.63;;;;;;;;;;5049885;28;20090;-63
2022/01/24 05:24:31;;;;;;;14.00;9.55;;;;;;;;;;5054733;28;20472;-63
2022/01/24 05:26:57;;;;;;;14.48;9.50;;;;;;;;;;5070419;28;20123;-63
2022/01/24 05:29:23;;;;;;;14.23;9.82;;;;;;;;;;5074967;28;20162;-63
2022/01/24 05:31:49;;;;;;;15.10;9.55;;;;;;;;;;5074500;28;20466;-63
2022/01/24 05:34:16;;;;;;;17.25;10.05;;;;;;;;;;5074884;28;20452;-63
2022/01/24 05:36:42;;;;;;;15.18;9.68;;;;;;;;;;5074793;28;20341;-63
2022/01/24 05:39:08;;;;;;;19.67;10.20;;;;;;;;;;5073978;28;20040;-63
2022/01/24 05:41:36;;;;;;;16.35;10.20;;;;;;;;;;5074888;28;20495;-63
2022/01/24 05:44:02;;;;;;;15.13;10.10;;;;;;;;;;5107047;28;20064;-63
2022/01/24 05:46:28;;;;;;;16.40;10.68;;;;;;;;;;5073970;28;20391;-63
2022/01/24 05:48:54;;;;;;;20.27;10.80;;;;;;;;;;5074357;28;20052;-63
2022/01/24 05:51:21;;;;;;;21.10;12.38;;;;;;;;;;5074461;28;20036;-63
2022/01/24 05:53:47;;;;;;;20.27;12.63;;;;;;;;;;5073733;28;20044;-63
2022/01/24 05:56:13;;;;;;;19.80;11.20;;;;;;;;;;5074375;28;20032;-63
2022/01/24 05:58:40;;;;;;;18.85;11.63;;;;;;;;;;5074205;28;20044;-63
2022/01/24 06:01:06;;;;;;;18.02;10.85;;;;;;;;;;5073657;28;20040;-63
2022/01/24 06:03:32;;;;;;;16.48;9.93;;;;;;;;;;5074157;28;20046;-63
2022/01/24 06:05:58;;;;;;;18.60;10.60;;;;;;;;;;5073947;28;20040;-63
2022/01/24 06:08:24;;;;;;;16.40;9.15;;;;;;;;;;5073558;28;20533;-63
2022/01/24 06:10:50;;;;;;;14.52;9.52;;;;;;;;;;5074211;28;20032;-63
2022/01/24 06:13:16;;;;;;;14.93;9.93;;;;;;;;;;5073993;28;20504;-63
2022/01/24 06:15:43;;;;;;;17.48;10.38;;;;;;;;;;5073537;28;20036;-63
2022/01/24 06:18:09;;;;;;;16.27;10.18;;;;;;;;;;5074158;28;20429;-63
2022/01/24 06:20:35;;;;;;;15.25;9.73;;;;;;;;;;5074019;28;20036;-63
2022/01/24 06:23:01;;;;;;;15.50;10.60;;;;;;;;;;5073470;28;20094;-63
2022/01/24 06:25:29;;;;;;;17.50;11.43;;;;;;;;;;5073528;28;20052;-63
2022/01/24 06:27:55;;;;;;;18.40;11.40;;;;;;;;;;5071461;28;20414;-63
2022/01/24 06:30:21;;;;;;;17.50;11.20;;;;;;;;;;5073339;28;20115;-63
2022/01/24 06:32:47;;;;;;;19.08;11.30;;;;;;;;;;5073475;28;20045;-63
2022/01/24 06:35:14;;;;;;;20.30;12.82;;;;;;;;;;5073637;28;20367;-63
2022/01/24 06:37:41;;;;;;;22.08;12.40;;;;;;;;;;5073168;28;20052;-63
2022/01/24 06:40:08;;;;;;;21.83;12.95;;;;;;;;;;5073898;28;20063;-63
2022/01/24 06:42:34;;;;;;;22.75;12.43;;;;;;;;;;5073359;28;20036;-63
2022/01/24 06:45:00;;;;;;;24.08;13.18;;;;;;;;;;5071172;28;20035;-63
2022/01/24 06:47:26;;;;;;;27.75;15.18;;;;;;;;;;5072304;28;20048;-63
2022/01/24 06:49:52;;;;;;;26.25;14.77;;;;;;;;;;5073289;28;20459;-63
2022/01/24 06:52:20;;;;;;;29.20;16.77;;;;;;;;;;5072048;28;20129;-63
2022/01/24 06:54:46;;;;;;;36.95;18.33;;;;;;;;;;5072789;28;20041;-64
2022/01/24 06:57:13;;;;;;;39.50;18.80;;;;;;;;;;5071736;28;20475;-63
2022/01/24 06:59:40;;;;;;;37.75;20.23;;;;;;;;;;5071873;28;20472;-63
2022/01/24 07:02:06;;;;;;;34.55;19.77;;;;;;;;;;5072572;28;20131;-63
2022/01/24 07:04:32;;;;;;;30.85;17.65;;;;;;;;;;5072501;28;20051;-63
2022/01/24 07:06:58;;;;;;;32.67;17.65;;;;;;;;;;5071496;28;20048;-62
2022/01/24 07:09:24;;;;;;;42.80;20.35;;;;;;;;;;5071030;28;20441;-65
2022/01/24 07:11:51;;;;;;;37.47;19.23;;;;;;;;;;5070441;28;20036;-63
2022/01/24 07:14:17;;;;;;;40.33;21.25;;;;;;;;;;5071080;28;20040;-63
2022/01/24 07:19:29;;;;;;;45.20;23.17;;;;;;;;;;5074671;28;20064;-63
2022/01/24 07:21:56;;;;;;;44.58;21.98;;;;;;;;;;5072743;28;20052;-63
2022/01/24 07:24:23;;;;;;;45.97;23.33;;;;;;;;;;5066289;28;20040;-62
2022/01/24 07:26:49;;;;;;;46.20;23.77;;;;;;;;;;5067312;28;20053;-62
2022/01/24 07:29:15;;;;;;;51.92;25.85;;;;;;;;;;5075100;28;20127;-61
2022/01/24 07:31:41;;;;;;;51.75;26.27;;;;;;;;;;5071870;28;20689;-63
2022/01/24 07:34:08;;;;;;;49.00;25.20;;;;;;;;;;5071849;28;20040;-64
2022/01/24 07:36:34;;;;;;;52.50;26.63;;;;;;;;;;5071240;28;20043;-64
2022/01/24 07:39:01;;;;;;;48.90;25.20;;;;;;;;;;5069769;28;20040;-60
2022/01/24 07:41:29;;;;;;;57.17;28.10;;;;;;;;;;5061890;28;20072;-62
2022/01/24 07:43:56;;;;;;;64.22;29.88;;;;;;;;;;5069205;28;20052;-63
2022/01/24 07:46:23;;;;;;;60.85;29.80;;;;;;;;;;5070880;28;20044;-64
2022/01/24 07:48:49;;;;;;;61.47;31.25;;;;;;;;;;5067392;28;20037;-64
2022/01/24 07:51:15;;;;;;;56.17;28.30;;;;;;;;;;5064916;28;20044;-61
2022/01/24 07:53:42;;;;;;;63.30;29.85;;;;;;;;;;5071290;28;20040;-63
2022/01/24 07:56:08;;;;;;;65.63;32.20;;;;;;;;;;5070295;28;20044;-64
2022/01/24 07:58:35;;;;;;;71.43;33.05;;;;;;;;;;5065721;28;20072;-63
2022/01/24 08:01:01;;;;;;;72.35;33.63;;;;;;;;;;5070065;28;20044;-62
2022/01/24 08:03:27;;;;;;;69.13;34.50;;;;;;;;;;5068011;28;20052;-63
2022/01/24 08:05:53;;;;;;;72.50;33.95;;;;;;;;;;5069641;28;20036;-62
2022/01/24 08:08:19;;;;;;;76.18;34.67;;;;;;;;;;5070589;28;20031;-60
2022/01/24 08:10:45;;;;;;;75.13;34.88;;;;;;;;;;5071221;28;20048;-61
2022/01/24 08:13:13;;;;;;;79.32;36.85;;;;;;;;;;5069630;28;20658;-62
2022/01/24 08:15:39;;;;;;;74.90;34.40;;;;;;;;;;5068733;28;20102;-63
2022/01/24 08:18:05;;;;;;;76.38;34.28;;;;;;;;;;5075202;28;20380;-62
2022/01/24 08:20:32;;;;;;;77.93;37.35;;;;;;;;;;5070504;28;20128;-62
2022/01/24 08:22:58;;;;;;;71.60;35.08;;;;;;;;;;5065697;28;20049;-64
2022/01/24 08:25:26;;;;;;;73.07;35.55;;;;;;;;;;5071127;28;20047;-65
2022/01/24 08:27:52;;;;;;;83.40;38.17;;;;;;;;;;5069522;28;20090;-63
2022/01/24 08:30:20;;;;;;;81.00;38.35;;;;;;;;;;5071632;28;20028;-64
2022/01/24 08:32:46;;;;;;;78.70;37.30;;;;;;;;;;5070092;28;20111;-62
2022/01/24 08:35:13;;;;;;;78.90;37.75;;;;;;;;;;5067384;28;20545;-63
2022/01/24 08:37:39;;;;;;;86.45;38.40;;;;;;;;;;5070869;28;20100;-61
2022/01/24 08:40:08;;;;;;;73.32;35.58;;;;;;;;;;5070230;28;20040;-61
2022/01/24 08:42:42;;;;;;;69.63;32.40;;;;;;;;;;5069687;28;20076;-65
2022/01/24 08:47:54;;;;;;;66.22;33.05;;;;;;;;;;5066773;28;20129;-65
2022/01/24 08:50:25;;;;;;;77.35;36.55;;;;;;;;;;5066018;28;20056;-63
2022/01/24 08:52:51;;;;;;;77.60;36.43;;;;;;;;;;5060254;28;20059;-62
2022/01/24 08:55:17;;;;;;;75.82;37.00;;;;;;;;;;5065866;28;20445;-62
2022/01/24 08:57:43;;;;;;;76.80;38.47;;;;;;;;;;5068672;28;20036;-60
2022/01/24 09:00:10;;;;;;;86.20;38.08;;;;;;;;;;5069105;28;20064;-60
2022/01/24 09:02:36;;;;;;;82.18;38.97;;;;;;;;;;5069622;28;20048;-60
2022/01/24 09:05:03;;;;;;;85.15;40.47;;;;;;;;;;5069468;28;20044;-60
2022/01/24 09:07:30;;;;;;;79.70;38.42;;;;;;;;;;5069355;28;20482;-64
2022/01/24 09:09:57;;;;;;;81.18;38.33;;;;;;;;;;5069672;28;20072;-63
2022/01/24 09:12:23;;;;;;;80.18;38.65;;;;;;;;;;5068078;28;20047;-63
2022/01/24 09:14:50;;;;;;;78.68;38.30;;;;;;;;;;5069575;28;20036;-62
2022/01/24 09:17:16;;;;;;;80.65;38.40;;;;;;;;;;5067782;28;20045;-62
2022/01/24 09:19:43;;;;;;;83.03;36.65;;;;;;;;;;5066688;28;20032;-63
2022/01/24 09:22:09;;;;;;;83.53;38.92;;;;;;;;;;5066461;28;20044;-63
2022/01/24 09:24:35;;;;;;;75.50;36.75;;;;;;;;;;5068142;28;20083;-62
2022/01/24 09:27:02;;;;;;;79.32;36.13;;;;;;;;;;5067979;28;20037;-64
2022/01/24 09:29:28;;;;;;;79.63;37.38;;;;;;;;;;5067948;28;20052;-63
2022/01/24 09:31:55;;;;;;;76.53;37.65;;;;;;;;;;5070988;28;20670;-60
2022/01/24 09:34:21;;;;;;;82.45;37.78;;;;;;;;;;5068020;28;20692;-62
2022/01/24 09:36:48;;;;;;;74.80;36.53;;;;;;;;;;5070958;28;20118;-63
2022/01/24 09:39:15;;;;;;;81.75;40.03;;;;;;;;;;5061266;28;20105;-61
2022/01/24 09:41:41;;;;;;;79.53;38.75;;;;;;;;;;5069070;28;20093;-62
2022/01/24 09:44:08;;;;;;;79.85;39.00;;;;;;;;;;5068907;28;20542;-62
2022/01/24 09:46:37;;;;;;;79.07;38.88;;;;;;;;;;5071387;28;20040;-62
2022/01/24 09:49:04;;;;;;;74.78;36.88;;;;;;;;;;5068596;28;20037;-62
2022/01/24 09:51:31;;;;;;;83.03;39.67;;;;;;;;;;5068583;28;20044;-62
2022/01/24 09:53:58;;;;;;;85.70;39.97;;;;;;;;;;5068106;28;20028;-63
2022/01/24 09:56:24;;;;;;;79.97;36.92;;;;;;;;;;5068362;28;20060;-62
2022/01/24 09:58:50;;;;;;;78.93;37.60;;;;;;;;;;5068524;28;20119;-63
2022/01/24 10:01:18;;;;;;;76.45;37.40;;;;;;;;;;5065704;28;20049;-62
2022/01/24 10:04:03;;;;;;;75.55;36.92;;;;;;;;;;5070979;28;20094;-62
2022/01/24 10:06:49;;;;;;;77.03;36.97;;;;;;;;;;5058256;28;20040;-62
2022/01/24 10:09:15;;;;;;;79.18;36.67;;;;;;;;;;5066155;28;20044;-62
2022/01/24 10:11:41;;;;;;;79.57;36.78;;;;;;;;;;5069340;28;20048;-62
2022/01/24 10:16:55;;;;;;;79.63;37.15;;;;;;;;;;5076780;28;20039;-62
2022/01/24 10:19:22;;;;;;;79.10;36.70;;;;;;;;;;5079409;28;20040;-62
2022/01/24 10:21:50;;;;;;;76.78;37.33;;;;;;;;;;5072240;28;20043;-60
2022/01/24 10:24:34;;;;;;;74.63;38.00;;;;;;;;;;5070822;28;20064;-63
2022/01/24 10:27:20;;;;;;;73.53;35.67;;;;;;;;;;5067325;28;20040;-64
2022/01/24 10:29:56;;;;;;;70.18;35.70;;;;;;;;;;5072347;28;20363;-65
2022/01/24 10:32:28;;;;;;;71.00;34.28;;;;;;;;;;5072451;28;20356;-65
2022/01/24 10:34:54;;;;;;;68.30;34.40;;;;;;;;;;5068908;28;20037;-63
2022/01/24 10:37:22;;;;;;;71.05;36.60;;;;;;;;;;5076171;28;20032;-63
2022/01/24 10:39:58;;;;;;;66.28;32.53;;;;;;;;;;5078761;28;20052;-61
2022/01/24 10:44:51;;;;;;;68.13;32.97;;;;;;;;;;5071889;28;20048;-62
2022/01/24 10:47:28;;;;;;;65.93;33.28;;;;;;;;;;5072195;28;20086;-61
2022/01/24 10:49:54;;;;;;;65.45;33.63;;;;;;;;;;5068724;28;20076;-62
2022/01/24 10:52:24;;;;;;;66.55;32.33;;;;;;;;;;5071620;28;20075;-62
2022/01/24 10:54:52;;;;;;;65.63;32.47;;;;;;;;;;5070898;28;20071;-64
2022/01/24 10:57:25;;;;;;;64.50;32.58;;;;;;;;;;5071509;28;20051;-63
2022/01/24 10:59:51;;;;;;;65.90;32.13;;;;;;;;;;5071522;28;20040;-63
2022/01/24 11:02:17;;;;;;;62.08;31.73;;;;;;;;;;5071421;28;20106;-62
2022/01/24 11:04:44;;;;;;;57.05;30.55;;;;;;;;;;5070978;28;20040;-65
2022/01/24 11:07:10;;;;;;;64.20;32.63;;;;;;;;;;5071233;28;20032;-63
2022/01/24 11:09:37;;;;;;;61.13;31.50;;;;;;;;;;5069585;28;20506;-64
2022/01/24 11:12:13;;;;;;;64.68;30.50;;;;;;;;;;5068713;28;20045;-63
2022/01/24 11:14:41;;;;;;;59.65;30.20;;;;;;;;;;5068224;28;20102;-63
2022/01/24 11:17:08;;;;;;;64.97;31.42;;;;;;;;;;5070867;28;20058;-63
2022/01/24 11:19:42;;;;;;;59.05;31.33;;;;;;;;;;5070110;28;20040;-63
2022/01/24 11:22:19;;;;;;;58.53;30.67;;;;;;;;;;5070182;28;20047;-63
2022/01/24 11:24:51;;;;;;;56.72;30.92;;;;;;;;;;5070598;28;20048;-63
2022/01/24 11:27:18;;;;;;;65.28;32.58;;;;;;;;;;5067285;28;20470;-64
2022/01/24 11:29:44;;;;;;;62.13;30.92;;;;;;;;;;5064050;28;20052;-63
2022/01/24 11:32:16;;;;;;;63.33;30.80;;;;;;;;;;5069979;28;20054;-63
2022/01/24 11:34:47;;;;;;;58.17;30.20;;;;;;;;;;5071362;28;20399;-63
2022/01/24 11:37:31;;;;;;;60.65;31.55;;;;;;;;;;5070891;28;20410;-63
2022/01/24 11:39:57;;;;;;;56.28;29.95;;;;;;;;;;5069503;28;20044;-63
2022/01/24 11:42:28;;;;;;;62.95;31.25;;;;;;;;;;5070439;28;20047;-63
2022/01/24 11:44:55;;;;;;;62.50;33.20;;;;;;;;;;5070841;28;20040;-63
2022/01/24 11:47:26;;;;;;;61.35;32.45;;;;;;;;;;5069233;28;20491;-63
2022/01/24 11:49:53;;;;;;;59.67;31.02;;;;;;;;;;5071043;28;20047;-63
2022/01/24 11:52:20;;;;;;;66.88;32.13;;;;;;;;;;5070553;28;20040;-63
2022/01/24 11:55:00;;;;;;;58.90;30.73;;;;;;;;;;5070565;28;20581;-63
2022/01/24 11:57:37;;;;;;;62.63;33.00;;;;;;;;;;5070879;28;20056;-63
2022/01/24 12:00:07;;;;;;;63.15;33.70;;;;;;;;;;5070140;28;20062;-63
2022/01/24 12:02:43;;;;;;;66.60;33.15;;;;;;;;;;5070899;28;20476;-63
2022/01/24 12:05:22;;;;;;;64.85;33.65;;;;;;;;;;5070914;28;20040;-63
2022/01/24 12:07:49;;;;;;;65.10;33.38;;;;;;;;;;5053770;28;20058;-65
2022/01/24 12:10:22;;;;;;;68.88;36.22;;;;;;;;;;5070495;28;20481;-64
2022/01/24 12:12:50;;;;;;;64.57;34.78;;;;;;;;;;5070700;28;20455;-63
2022/01/24 12:15:35;;;;;;;64.20;32.72;;;;;;;;;;5088956;28;20043;-62
2022/01/24 12:18:02;;;;;;;64.97;34.67;;;;;;;;;;5072247;28;20043;-62
2022/01/24 12:20:31;;;;;;;64.25;32.92;;;;;;;;;;5072386;28;20055;-62
2022/01/24 12:23:20;;;;;;;67.28;35.58;;;;;;;;;;5071482;28;20050;-64
2022/01/24 12:25:48;;;;;;;65.15;34.70;;;;;;;;;;5068803;28;20097;-64
2022/01/24 12:28:18;;;;;;;61.00;32.50;;;;;;;;;;5070251;28;20048;-65
2022/01/24 12:31:01;;;;;;;65.65;34.10;;;;;;;;;;5074295;28;20041;-64
2022/01/24 12:33:44;;;;;;;64.57;34.63;;;;;;;;;;5074941;28;20047;-62
2022/01/24 12:36:12;;;;;;;59.80;31.65;;;;;;;;;;5064745;28;20494;-64
2022/01/24 12:38:42;;;;;;;62.85;33.85;;;;;;;;;;5073859;28;20043;-64
2022/01/24 12:41:17;;;;;;;63.55;33.67;;;;;;;;;;5071703;28;20041;-63
2022/01/24 12:46:36;;;;;;;59.22;31.70;;;;;;;;;;5048979;28;20049;-64
2022/01/24 12:49:03;;;;;;;50.33;29.75;;;;;;;;;;5063680;28;20048;-62
2022/01/24 12:51:31;;;;;;;54.97;30.17;;;;;;;;;;5070255;28;20036;-63
2022/01/24 12:53:57;;;;;;;57.85;31.38;;;;;;;;;;5068542;28;20048;-64
2022/01/24 12:56:28;;;;;;;55.13;31.70;;;;;;;;;;5067647;28;20173;-64
2022/01/24 12:58:55;;;;;;;58.92;33.33;;;;;;;;;;5068129;28;20527;-64
2022/01/24 13:01:25;;;;;;;57.08;32.35;;;;;;;;;;5067737;28;20040;-64
2022/01/24 13:03:58;;;;;;;63.08;33.35;;;;;;;;;;5065552;28;20040;-64
2022/01/24 13:06:25;;;;;;;51.33;29.60;;;;;;;;;;5070486;28;20146;-64
2022/01/24 13:09:01;;;;;;;68.47;35.47;;;;;;;;;;5068620;28;20044;-63
2022/01/24 13:11:28;;;;;;;59.15;30.77;;;;;;;;;;5070448;28;20047;-62
2022/01/24 13:13:59;;;;;;;56.60;32.20;;;;;;;;;;5081163;28;20386;-63
2022/01/24 13:22:20;;;;;;;53.38;30.25;;;;;;;;;;5064552;28;19922;-61
2022/01/24 13:25:05;;;;;;;58.97;30.98;;;;;;;;;;5069077;28;20541;-62
2022/01/24 13:27:54;;;;;;;52.15;28.50;;;;;;;;;;5053423;28;20053;-61
2022/01/24 13:30:23;;;;;;;46.22;27.33;;;;;;;;;;5064437;28;20044;-63
2022/01/24 13:32:59;;;;;;;49.05;29.05;;;;;;;;;;5069139;28;20714;-62
2022/01/24 13:35:27;;;;;;;45.13;26.92;;;;;;;;;;5080970;28;20154;-62
2022/01/24 13:38:12;;;;;;;42.40;25.83;;;;;;;;;;5072042;28;20048;-64
2022/01/24 13:40:59;;;;;;;47.30;27.85;;;;;;;;;;5086610;28;20052;-63
2022/01/24 13:43:50;;;;;;;48.17;27.83;;;;;;;;;;5073524;28;20119;-63
2022/01/24 13:46:24;;;;;;;45.10;27.52;;;;;;;;;;5066367;28;20048;-63
2022/01/24 13:49:01;;;;;;;42.28;25.83;;;;;;;;;;5069958;28;20102;-61
2022/01/24 13:51:35;;;;;;;39.08;25.40;;;;;;;;;;5064245;28;20044;-61
2022/01/24 13:54:03;;;;;;;41.90;26.02;;;;;;;;;;5072586;28;20079;-62
2022/01/24 13:56:33;;;;;;;45.60;27.20;;;;;;;;;;5070721;28;20131;-62
2022/01/24 13:59:04;;;;;;;41.95;26.40;;;;;;;;;;5073661;28;20040;-62
2022/01/24 14:01:31;;;;;;;42.35;26.98;;;;;;;;;;5067556;28;20099;-62
2022/01/24 14:04:05;;;;;;;45.03;27.52;;;;;;;;;;5071870;28;20050;-61
2022/01/24 14:06:32;;;;;;;41.72;27.10;;;;;;;;;;5072405;28;20043;-61
2022/01/24 14:09:04;;;;;;;41.13;25.38;;;;;;;;;;5072286;28;20044;-61
2022/01/24 14:11:30;;;;;;;39.57;25.37;;;;;;;;;;5072687;28;20510;-60
2022/01/24 14:14:06;;;;;;;40.03;25.60;;;;;;;;;;5073087;28;20283;-61
2022/01/24 14:16:50;;;;;;;44.22;26.90;;;;;;;;;;5072449;28;21315;-61
2022/01/24 14:19:16;;;;;;;40.17;25.58;;;;;;;;;;5064307;28;20045;-61
2022/01/24 14:22:00;;;;;;;40.53;25.90;;;;;;;;;;5065058;28;20044;-59
2022/01/24 14:24:46;;;;;;;38.65;24.98;;;;;;;;;;5066935;28;20036;-61
2022/01/24 14:27:13;;;;;;;39.10;24.67;;;;;;;;;;5070269;28;20032;-62
2022/01/24 14:29:39;;;;;;;39.83;25.05;;;;;;;;;;5067649;28;20099;-58
2022/01/24 14:32:11;;;;;;;44.17;26.33;;;;;;;;;;5078952;28;20040;-59
2022/01/24 14:34:38;;;;;;;42.10;26.67;;;;;;;;;;5072045;28;20116;-58
2022/01/24 14:37:05;;;;;;;42.03;26.98;;;;;;;;;;5071299;28;20102;-58
2022/01/24 14:39:32;;;;;;;41.28;25.63;;;;;;;;;;5059209;28;20639;-59
2022/01/24 14:42:07;;;;;;;42.53;26.92;;;;;;;;;;5075504;28;20487;-59
2022/01/24 14:47:17;;;;;;;44.00;27.45;;;;;;;;;;5072636;28;20040;-58
2022/01/24 14:49:43;;;;;;;39.83;25.95;;;;;;;;;;5071769;28;20076;-58
2022/01/24 14:52:13;;;;;;;36.47;24.38;;;;;;;;;;5074646;28;20082;-61
2022/01/24 14:54:40;;;;;;;36.97;24.60;;;;;;;;;;5072189;28;20044;-60
2022/01/24 14:57:08;;;;;;;37.97;25.60;;;;;;;;;;5072313;28;20036;-61
2022/01/24 14:59:34;;;;;;;43.95;27.23;;;;;;;;;;5070117;28;20047;-61
2022/01/24 15:02:01;;;;;;;44.25;27.63;;;;;;;;;;5071040;28;20033;-61
2022/01/24 15:04:27;;;;;;;34.28;24.00;;;;;;;;;;5071954;28;20051;-60
2022/01/24 15:06:53;;;;;;;34.40;23.48;;;;;;;;;;5071996;28;20463;-61
2022/01/24 15:09:24;;;;;;;38.75;25.42;;;;;;;;;;5071878;28;20036;-61
2022/01/24 15:11:50;;;;;;;38.58;25.98;;;;;;;;;;5072645;28;20440;-61
2022/01/24 15:14:25;;;;;;;38.90;25.02;;;;;;;;;;5071911;28;20032;-61
2022/01/24 15:17:05;;;;;;;41.60;27.13;;;;;;;;;;5071733;28;20040;-60
2022/01/24 15:27:43;;;;;;;44.72;26.73;;;;;;;;;;5053787;28;20441;-57
2022/01/24 15:30:11;;;;;;;47.75;28.38;;;;;;;;;;5070592;28;20049;-58
2022/01/24 15:32:37;;;;;;;44.25;26.65;;;;;;;;;;5074628;28;20154;-59
2022/01/24 15:35:03;;;;;;;45.90;27.67;;;;;;;;;;5072681;28;20041;-65
2022/01/24 15:37:29;;;;;;;48.03;27.40;;;;;;;;;;5074502;28;20404;-65
2022/01/24 15:39:55;;;;;;;47.17;27.95;;;;;;;;;;5072647;28;20048;-65
2022/01/24 15:50:01;;;;;;;43.13;26.58;;;;;;;;;;5072233;28;20483;-64
2022/01/24 15:52:28;;;;;;;45.05;27.17;;;;;;;;;;5071516;28;20089;-64
2022/01/24 15:54:55;;;;;;;43.45;26.35;;;;;;;;;;5072232;28;20569;-64
2022/01/24 15:57:40;;;;;;;44.28;26.55;;;;;;;;;;5071974;28;20046;-64
2022/01/24 16:00:22;;;;;;;42.47;25.10;;;;;;;;;;5071866;28;20447;-64
2022/01/24 16:02:48;;;;;;;;;;;;;;;;;;5072695;28;20036;-64
2022/01/24 16:05:15;;;;;;;45.53;25.23;;;;;;;;;;5072240;28;19916;-64
2022/01/24 16:07:42;;;;;;;44.13;27.42;;;;;;;;;;5071470;28;20127;-64
2022/01/24 16:10:10;;;;;;;46.25;27.00;;;;;;;;;;5072104;28;20040;-64
2022/01/24 16:12:37;;;;;;;46.60;26.58;;;;;;;;;;5072301;28;20037;-64
2022/01/24 16:15:03;;;;;;;46.33;28.52;;;;;;;;;;5069992;28;20048;-64
2022/01/24 16:17:30;;;;;;;49.33;27.83;;;;;;;;;;5071848;28;20044;-64
2022/01/24 16:19:56;;;;;;;45.42;27.55;;;;;;;;;;5071968;28;20452;-64
2022/01/24 16:28:16;;;;;;;44.95;27.02;;;;;;;;;;5048272;28;20132;-65
2022/01/24 16:30:46;;;;;;;50.25;28.17;;;;;;;;;;5049090;28;20036;-64
2022/01/24 16:33:13;;;;;;;48.35;27.00;;;;;;;;;;5050426;28;20044;-64
2022/01/24 16:35:40;;;;;;;50.30;28.60;;;;;;;;;;5051190;28;20377;-64
2022/01/24 16:38:09;;;;;;;52.03;29.42;;;;;;;;;;5083828;28;20048;-64
2022/01/24 16:43:17;;;;;;;45.65;26.80;;;;;;;;;;5051065;28;20049;-64
2022/01/24 16:48:28;;;;;;;48.65;26.85;;;;;;;;;;5051458;28;20081;-64
2022/01/24 16:50:54;;;;;;;44.58;26.13;;;;;;;;;;5050865;28;20487;-64